createdAt,value
2023-04-27T00:03:36.171Z,96391.00
2023-04-27T00:07:41.292Z,96391.00
2023-04-27T00:11:46.096Z,96391.00
2023-04-27T00:15:48.935Z,96389.00
2023-04-27T00:19:53.398Z,96391.00
2023-04-27T00:23:58.085Z,96397.00
2023-04-27T00:28:04.202Z,96383.00
2023-04-27T00:32:07.777Z,96386.00
2023-04-27T00:36:12.097Z,96386.00
2023-04-27T00:40:15.068Z,96388.00
2023-04-27T00:44:24.490Z,96392.00
2023-04-27T00:48:30.342Z,96385.00
2023-04-27T00:52:37.069Z,96389.00
2023-04-27T00:56:39.928Z,96382.00
2023-04-27T01:00:44.086Z,96376.00
2023-04-27T01:04:47.477Z,96386.00
2023-04-27T01:09:00.222Z,96376.00
2023-04-27T01:13:03.669Z,96372.00
2023-04-27T01:17:07.052Z,96373.00
2023-04-27T01:21:14.348Z,96361.00
2023-04-27T01:25:20.210Z,96366.00
2023-04-27T01:29:23.388Z,96364.00
2023-04-27T01:33:26.926Z,96371.00
2023-04-27T01:37:32.825Z,96368.00
2023-04-27T01:41:37.368Z,96369.00
2023-04-27T01:45:40.384Z,96371.00
2023-04-27T01:49:43.597Z,96379.00
2023-04-27T01:53:50.709Z,96382.00
2023-04-27T01:57:58.654Z,96378.00
2023-04-27T02:02:01.817Z,96384.00
2023-04-27T02:06:05.316Z,96381.00
2023-04-27T02:10:09.357Z,96389.00
2023-04-27T02:14:15.046Z,96385.00
2023-04-27T02:18:18.500Z,96383.00
2023-04-27T02:22:24.374Z,96379.00
2023-04-27T02:26:30.955Z,96398.00
2023-04-27T02:30:35.781Z,96393.00
2023-04-27T02:34:41.026Z,96385.00
2023-04-27T02:38:44.956Z,96390.00
2023-04-27T02:42:49.399Z,96389.00
2023-04-27T02:46:55.433Z,96396.00
2023-04-27T02:50:58.425Z,96389.00
2023-04-27T02:55:05.944Z,96391.00
2023-04-27T02:59:09.051Z,96389.00
2023-04-27T03:03:19.003Z,96399.00
2023-04-27T03:07:24.417Z,96389.00
2023-04-27T03:11:27.943Z,96396.00
2023-04-27T03:15:33.810Z,96391.00
2023-04-27T03:19:43.903Z,96387.00
2023-04-27T03:23:49.877Z,96388.00
2023-04-27T03:27:53.091Z,96395.00
2023-04-27T03:31:56.127Z,96403.00
2023-04-27T03:36:03.992Z,96406.00
2023-04-27T03:40:12.907Z,96404.00
2023-04-27T03:44:16.590Z,96403.00
2023-04-27T03:48:23.067Z,96399.00
2023-04-27T03:52:31.605Z,96414.00
2023-04-27T03:56:34.709Z,96416.00
2023-04-27T04:00:40.848Z,96418.00
2023-04-27T04:04:47.883Z,96428.00
2023-04-27T04:08:52.388Z,96427.00
2023-04-27T04:12:58.430Z,96424.00
2023-04-27T04:17:01.445Z,96432.00
2023-04-27T04:21:04.773Z,96434.00
2023-04-27T04:25:21.874Z,96435.00
2023-04-27T04:29:30.747Z,96427.00
2023-04-27T04:33:35.242Z,96447.00
2023-04-27T04:37:41.247Z,96452.00
2023-04-27T04:41:45.673Z,96457.00
2023-04-27T04:45:48.747Z,96450.00
2023-04-27T04:49:54.458Z,96450.00
2023-04-27T04:53:58.152Z,96453.00
2023-04-27T04:58:05.467Z,96451.00
2023-04-27T05:02:08.532Z,96452.00
2023-04-27T05:06:12.250Z,96453.00
2023-04-27T05:10:15.616Z,96451.00
2023-04-27T05:14:22.558Z,96452.00
2023-04-27T05:18:27.643Z,96456.00
2023-04-27T05:22:32.905Z,96457.00
2023-04-27T05:26:37.762Z,96462.00
2023-04-27T05:30:42.401Z,96457.00
2023-04-27T05:34:47.942Z,96467.00
2023-04-27T05:38:52.406Z,96468.00
2023-04-27T05:42:55.565Z,96476.00
2023-04-27T05:47:03.607Z,96472.00
2023-04-27T05:51:11.504Z,96475.00
2023-04-27T05:55:14.508Z,96484.00
2023-04-27T05:59:22.388Z,96479.00
2023-04-27T06:03:27.099Z,96486.00
2023-04-27T06:07:32.146Z,96487.00
2023-04-27T06:11:35.483Z,96489.00
2023-04-27T06:15:38.542Z,96494.00
2023-04-27T06:19:46.340Z,96494.00
2023-04-27T06:23:49.684Z,96502.00
2023-04-27T06:27:52.699Z,96506.00
2023-04-27T06:31:56.859Z,96506.00
2023-04-27T06:36:02.329Z,96509.00
2023-04-27T06:40:06.854Z,96516.00
2023-04-27T06:44:09.928Z,96510.00
2023-04-27T06:48:14.168Z,96508.00
2023-04-27T06:52:18.722Z,96513.00
2023-04-27T06:56:23.903Z,96515.00
2023-04-27T07:00:28.508Z,96521.00
2023-04-27T07:04:31.638Z,96527.00
2023-04-27T07:08:38.157Z,96529.00
2023-04-27T07:12:41.696Z,96529.00
2023-04-27T07:16:45.972Z,96525.00
2023-04-27T07:20:50.742Z,96519.00
2023-04-27T07:25:00.699Z,96516.00
2023-04-27T07:29:18.923Z,96522.00
2023-04-27T07:33:26.993Z,96522.00
2023-04-27T07:37:33.651Z,96523.00
2023-04-27T07:41:38.113Z,96522.00
2023-04-27T07:45:44.197Z,96520.00
2023-04-27T07:49:48.101Z,96519.00
2023-04-27T07:53:51.941Z,96526.00
2023-04-27T07:58:07.963Z,96532.00
2023-04-27T08:06:21.176Z,96540.00
2023-04-27T08:10:25.286Z,96546.00
2023-04-27T08:14:36.257Z,96537.00
2023-04-27T08:18:42.204Z,96545.00
2023-04-27T08:22:45.438Z,96543.00
2023-04-27T08:26:50.801Z,96552.00
2023-04-27T08:30:56.333Z,96551.00
2023-04-27T08:34:59.416Z,96556.00
2023-04-27T08:39:05.589Z,96552.00
2023-04-27T08:43:09.688Z,96549.00
2023-04-27T08:47:14.205Z,96551.00
2023-04-27T08:51:17.972Z,96546.00
2023-04-27T08:55:21.565Z,96558.00
2023-04-27T08:59:24.523Z,96554.00
2023-04-27T09:03:29.199Z,96556.00
2023-04-27T09:07:32.584Z,96560.00
2023-04-27T09:11:38.138Z,96561.00
2023-04-27T09:15:47.134Z,96566.00
2023-04-27T09:19:53.225Z,96563.00
2023-04-27T09:23:57.412Z,96560.00
2023-04-27T09:28:01.589Z,96562.00
2023-04-27T09:32:16.706Z,96556.00
2023-04-27T09:36:25.571Z,96556.00
2023-04-27T09:40:32.023Z,96552.00
2023-04-27T09:44:36.069Z,96543.00
2023-04-27T09:48:41.105Z,96546.00
2023-04-27T09:52:47.010Z,96545.00
2023-04-27T09:56:56.767Z,96538.00
2023-04-27T10:01:11.600Z,96535.00
2023-04-27T10:05:31.655Z,96532.00
2023-04-27T10:09:45.208Z,96529.00
2023-04-27T10:13:55.364Z,96523.00
2023-04-27T10:18:08.552Z,96527.00
2023-04-27T10:22:11.630Z,96526.00
2023-04-27T10:26:24.183Z,96520.00
2023-04-27T10:30:28.957Z,96524.00
2023-04-27T10:34:36.399Z,96511.00
2023-04-27T10:38:42.202Z,96515.00
2023-04-27T10:42:49.743Z,96520.00
2023-04-27T10:46:53.447Z,96516.00
2023-04-27T10:51:00.753Z,96509.00
2023-04-27T10:55:15.073Z,96502.00
2023-04-27T10:59:21.302Z,96501.00
2023-04-27T11:03:26.368Z,96505.00
2023-04-27T11:07:29.976Z,96493.00
2023-04-27T11:11:34.265Z,96502.00
2023-04-27T11:15:47.815Z,96505.00
2023-04-27T11:19:50.932Z,96499.00
2023-04-27T11:23:54.998Z,96490.00
2023-04-27T11:27:58.009Z,96502.00
2023-04-27T11:32:02.729Z,96496.00
2023-04-27T11:36:16.899Z,96502.00
2023-04-27T11:40:22.668Z,96506.00
2023-04-27T11:44:29.938Z,96505.00
2023-04-27T11:48:34.667Z,96499.00
2023-04-27T11:52:39.127Z,96498.00
2023-04-27T11:56:43.199Z,96504.00
2023-04-27T12:00:49.503Z,96507.00
2023-04-27T12:04:54.395Z,96510.00
2023-04-27T12:09:02.749Z,96501.00
2023-04-27T12:13:05.773Z,96492.00
2023-04-27T12:17:10.234Z,96499.00
2023-04-27T12:21:15.710Z,96497.00
2023-04-27T12:25:19.781Z,96503.00
2023-04-27T12:29:29.247Z,96500.00
2023-04-27T12:33:32.918Z,96494.00
2023-04-27T12:37:37.985Z,96480.00
2023-04-27T12:41:42.638Z,96490.00
2023-04-27T12:45:45.854Z,96503.00
2023-04-27T12:49:56.206Z,96494.00
2023-04-27T12:54:01.193Z,96488.00
2023-04-27T12:58:07.665Z,96491.00
2023-04-27T13:02:12.734Z,96486.00
2023-04-27T13:06:26.108Z,96491.00
2023-04-27T13:10:36.741Z,96474.00
2023-04-27T13:14:42.790Z,96489.00
2023-04-27T13:18:49.504Z,96489.00
2023-04-27T13:22:54.922Z,96487.00
2023-04-27T13:27:04.354Z,96480.00
2023-04-27T13:31:11.036Z,96477.00
2023-04-27T13:35:14.371Z,96484.00
2023-04-27T13:39:20.199Z,96477.00
2023-04-27T13:43:24.853Z,96476.00
2023-04-27T13:47:31.923Z,96470.00
2023-04-27T13:51:35.960Z,96462.00
2023-04-27T13:55:41.508Z,96467.00
2023-04-27T13:59:46.180Z,96473.00
2023-04-27T14:03:49.449Z,96473.00
2023-04-27T14:07:53.975Z,96463.00
2023-04-27T14:11:59.393Z,96461.00
2023-04-27T14:16:05.184Z,96449.00
2023-04-27T14:20:09.705Z,96446.00
2023-04-27T14:24:14.500Z,96456.00
2023-04-27T14:28:20.788Z,96444.00
2023-04-27T14:32:27.698Z,96441.00
2023-04-27T14:36:34.782Z,96439.00
2023-04-27T14:40:39.279Z,96450.00
2023-04-27T14:44:42.409Z,96448.00
2023-04-27T14:48:47.213Z,96446.00
2023-04-27T14:52:50.333Z,96444.00
2023-04-27T14:56:58.215Z,96447.00
2023-04-27T15:01:02.425Z,96452.00
2023-04-27T15:05:07.667Z,96449.00
2023-04-27T15:09:11.859Z,96455.00
2023-04-27T15:13:19.984Z,96452.00
2023-04-27T15:17:23.888Z,96452.00
2023-04-27T15:21:28.329Z,96451.00
2023-04-27T15:25:31.385Z,96447.00
2023-04-27T15:29:34.465Z,96450.00
2023-04-27T15:33:37.847Z,96452.00
2023-04-27T15:37:44.790Z,96453.00
2023-04-27T15:41:47.945Z,96448.00
2023-04-27T15:45:53.984Z,96441.00
2023-04-27T15:49:58.224Z,96437.00
2023-04-27T15:54:03.059Z,96439.00
2023-04-27T15:58:08.887Z,96441.00
2023-04-27T16:02:13.301Z,96435.00
2023-04-27T16:06:16.662Z,96431.00
2023-04-27T16:10:22.095Z,96430.00
2023-04-27T16:14:25.250Z,96421.00
2023-04-27T16:18:31.767Z,96417.00
2023-04-27T16:22:35.152Z,96423.00
2023-04-27T16:26:42.291Z,96414.00
2023-04-27T16:30:50.114Z,96416.00
2023-04-27T16:34:57.341Z,96414.00
2023-04-27T16:39:00.360Z,96410.00
2023-04-27T16:43:04.766Z,96413.00
2023-04-27T16:47:08.030Z,96409.00
2023-04-27T16:51:11.763Z,96410.00
2023-04-27T16:55:14.862Z,96414.00
2023-04-27T16:59:19.549Z,96415.00
2023-04-27T17:03:25.576Z,96416.00
2023-04-27T17:07:32.761Z,96415.00
2023-04-27T17:11:37.217Z,96404.00
2023-04-27T17:15:41.755Z,96408.00
2023-04-27T17:19:49.667Z,96405.00
2023-04-27T17:23:53.263Z,96409.00
2023-04-27T17:27:56.629Z,96409.00
2023-04-27T17:32:03.968Z,96407.00
2023-04-27T17:36:09.259Z,96410.00
2023-04-27T17:40:13.967Z,96410.00
2023-04-27T17:44:19.155Z,96411.00
2023-04-27T17:48:23.670Z,96412.00
2023-04-27T17:52:29.477Z,96405.00
2023-04-27T17:56:34.091Z,96401.00
2023-04-27T18:00:37.395Z,96401.00
2023-04-27T18:04:55.083Z,96401.00
2023-04-27T18:08:58.346Z,96401.00
2023-04-27T18:13:01.432Z,96401.00
2023-04-27T18:17:06.344Z,96398.00
2023-04-27T18:21:10.719Z,96404.00
2023-04-27T18:25:17.148Z,96408.00
2023-04-27T18:29:24.138Z,96410.00
2023-04-27T18:33:29.582Z,96406.00
2023-04-27T18:37:34.417Z,96409.00
2023-04-27T18:41:41.703Z,96412.00
2023-04-27T18:45:46.744Z,96404.00
2023-04-27T18:49:52.817Z,96411.00
2023-04-27T18:54:00.410Z,96416.00
2023-04-27T18:58:03.544Z,96416.00
2023-04-27T19:02:07.504Z,96414.00
2023-04-27T19:06:10.693Z,96424.00
2023-04-27T19:10:19.304Z,96432.00
2023-04-27T19:14:24.334Z,96432.00
2023-04-27T19:18:30.802Z,96433.00
2023-04-27T19:22:35.005Z,96439.00
2023-04-27T19:26:39.651Z,96434.00
2023-04-27T19:30:44.232Z,96430.00
2023-04-27T19:34:53.018Z,96427.00
2023-04-27T19:38:59.356Z,96431.00
2023-04-27T19:43:04.822Z,96426.00
2023-04-27T19:47:07.960Z,96425.00
2023-04-27T19:51:13.626Z,96422.00
2023-04-27T19:55:18.612Z,96418.00
2023-04-27T19:59:29.133Z,96425.00
2023-04-27T20:03:32.353Z,96414.00
2023-04-27T20:07:35.898Z,96417.00
2023-04-27T20:11:39.406Z,96413.00
2023-04-27T20:15:44.559Z,96413.00
2023-04-27T20:19:50.228Z,96413.00
2023-04-27T20:24:02.049Z,96418.00
2023-04-27T20:28:07.834Z,96413.00
2023-04-27T20:32:14.031Z,96407.00
2023-04-27T20:36:19.839Z,96405.00
2023-04-27T20:40:25.810Z,96414.00
2023-04-27T20:44:28.978Z,96420.00
2023-04-27T20:48:38.508Z,96413.00
2023-04-27T20:52:41.828Z,96409.00
2023-04-27T20:56:52.139Z,96413.00
2023-04-27T21:00:57.494Z,96395.00
2023-04-27T21:05:02.091Z,96393.00
2023-04-27T21:09:05.610Z,96397.00
2023-04-27T21:13:10.947Z,96389.00
2023-04-27T21:17:18.376Z,96395.00
2023-04-27T21:21:24.813Z,96389.00
2023-04-27T21:25:32.816Z,96387.00
2023-04-27T21:29:36.411Z,96389.00
2023-04-27T21:33:39.419Z,96386.00
2023-04-27T21:37:46.332Z,96374.00
2023-04-27T21:41:49.565Z,96382.00
2023-04-27T21:45:53.045Z,96373.00
2023-04-27T21:49:56.298Z,96382.00
2023-04-27T21:54:02.309Z,96380.00
2023-04-27T21:58:05.328Z,96378.00
2023-04-27T22:02:08.557Z,96369.00
2023-04-27T22:06:12.577Z,96376.00
2023-04-27T22:10:17.152Z,96372.00
2023-04-27T22:14:21.120Z,96376.00
2023-04-27T22:18:24.395Z,96383.00
2023-04-27T22:22:28.656Z,96376.00
2023-04-27T22:26:34.992Z,96371.00
2023-04-27T22:30:39.476Z,96367.00
2023-04-27T22:34:42.871Z,96367.00
2023-04-27T22:38:46.384Z,96372.00
2023-04-27T22:42:51.467Z,96367.00
2023-04-27T22:47:04.581Z,96363.00
2023-04-27T22:51:09.706Z,96354.00
2023-04-27T22:55:14.334Z,96358.00
2023-04-27T22:59:22.696Z,96350.00
2023-04-27T23:03:32.111Z,96349.00
2023-04-27T23:07:37.093Z,96352.00
2023-04-27T23:11:41.612Z,96349.00
2023-04-27T23:15:46.035Z,96345.00
2023-04-27T23:19:55.209Z,96346.00
2023-04-27T23:23:59.788Z,96356.00
2023-04-27T23:28:07.712Z,96346.00
2023-04-27T23:32:14.073Z,96337.00
2023-04-27T23:36:17.053Z,96340.00
2023-04-27T23:40:20.093Z,96336.00
2023-04-27T23:44:23.594Z,96332.00
2023-04-27T23:48:28.204Z,96340.00
2023-04-27T23:52:31.507Z,96335.00
2023-04-27T23:56:34.614Z,96321.00
